Libertytown, Maryland
Current Conditions -  °F | °C
As of 5:50 AM on Wednesday 22 Oct 2014 (Local Time) from KFDK Reporting Station
Moderate Rain Moderate Rain  
Wind Chill: 55°   Ceiling: 2100
Heat Index: 55°   Visibility: 10mi
Dew Point: 50°   Wind: 9mph
Humidity: 82%   Direction: 10°N
Pressure: 29.94"   Gusts: NA
Location:  39.48°N, 77.23°W
Report Text: KFDK 220950Z AUTO 01008KT 10SM RA BKN021 BKN048 OVC070 13/10 A2994 RMK AO2 LTG DSNT E P0001
Loading
Personal Weather Stations






























Interactive Weather Map
Tropical Storm Tracking
New forecast layout! Learn more

10-Day Weather Forecast

Advertisements
Track Severe Weather on mobile